sensor_id;sensor_type;location;lat;lon;timestamp;temperature;humidity
14993;DHT22;7592;51.088;13.732;2022-08-19T00:02:15;23.00;99.90
14993;DHT22;7592;51.088;13.732;2022-08-19T00:07:08;22.90;99.90
14993;DHT22;7592;51.088;13.732;2022-08-19T00:12:00;22.90;99.90
14993;DHT22;7592;51.088;13.732;2022-08-19T00:16:53;22.80;99.90
14993;DHT22;7592;51.088;13.732;2022-08-19T00:21:46;22.80;99.90
14993;DHT22;7592;51.088;13.732;2022-08-19T00:26:40;22.80;99.90
14993;DHT22;7592;51.088;13.732;2022-08-19T00:31:32;22.80;99.90
14993;DHT22;7592;51.088;13.732;2022-08-19T00:36:25;22.80;99.90
14993;DHT22;7592;51.088;13.732;2022-08-19T00:41:20;22.80;99.90
14993;DHT22;7592;51.088;13.732;2022-08-19T00:46:13;22.90;99.90
14993;DHT22;7592;51.088;13.732;2022-08-19T00:51:05;22.90;99.90
14993;DHT22;7592;51.088;13.732;2022-08-19T00:55:59;22.80;99.90
14993;DHT22;7592;51.088;13.732;2022-08-19T01:00:53;22.70;99.90
14993;DHT22;7592;51.088;13.732;2022-08-19T01:05:46;22.70;99.90
14993;DHT22;7592;51.088;13.732;2022-08-19T01:10:44;22.70;99.90
14993;DHT22;7592;51.088;13.732;2022-08-19T01:15:46;22.80;99.90
14993;DHT22;7592;51.088;13.732;2022-08-19T01:20:41;22.70;99.90
14993;DHT22;7592;51.088;13.732;2022-08-19T01:25:44;22.80;99.90
14993;DHT22;7592;51.088;13.732;2022-08-19T01:30:37;22.80;99.90
14993;DHT22;7592;51.088;13.732;2022-08-19T01:35:35;22.70;99.90
14993;DHT22;7592;51.088;13.732;2022-08-19T01:40:30;22.80;99.90
14993;DHT22;7592;51.088;13.732;2022-08-19T01:45:24;22.70;99.90
14993;DHT22;7592;51.088;13.732;2022-08-19T01:50:17;22.80;99.90
14993;DHT22;7592;51.088;13.732;2022-08-19T01:55:14;22.80;99.90
14993;DHT22;7592;51.088;13.732;2022-08-19T02:00:09;22.80;99.90
14993;DHT22;7592;51.088;13.732;2022-08-19T02:05:03;22.80;99.90
14993;DHT22;7592;51.088;13.732;2022-08-19T02:09:55;22.80;99.90
14993;DHT22;7592;51.088;13.732;2022-08-19T02:14:48;22.80;99.90
14993;DHT22;7592;51.088;13.732;2022-08-19T02:19:40;22.80;99.90
14993;DHT22;7592;51.088;13.732;2022-08-19T02:24:32;22.70;99.90
14993;DHT22;7592;51.088;13.732;2022-08-19T02:29:24;22.70;99.90
14993;DHT22;7592;51.088;13.732;2022-08-19T02:34:17;22.60;99.90
14993;DHT22;7592;51.088;13.732;2022-08-19T02:39:10;22.60;99.90
14993;DHT22;7592;51.088;13.732;2022-08-19T02:44:03;22.70;99.90
14993;DHT22;7592;51.088;13.732;2022-08-19T02:49:16;22.60;99.90
14993;DHT22;7592;51.088;13.732;2022-08-19T02:54:10;22.70;99.90
14993;DHT22;7592;51.088;13.732;2022-08-19T02:59:03;22.80;99.90
14993;DHT22;7592;51.088;13.732;2022-08-19T03:04:04;22.80;99.90
14993;DHT22;7592;51.088;13.732;2022-08-19T03:08:57;22.80;99.90
14993;DHT22;7592;51.088;13.732;2022-08-19T03:13:50;22.80;99.90
14993;DHT22;7592;51.088;13.732;2022-08-19T03:18:43;22.80;99.90
14993;DHT22;7592;51.088;13.732;2022-08-19T03:23:35;22.80;99.90
14993;DHT22;7592;51.088;13.732;2022-08-19T03:28:28;22.80;99.90
14993;DHT22;7592;51.088;13.732;2022-08-19T03:33:20;22.70;99.90
14993;DHT22;7592;51.088;13.732;2022-08-19T03:38:19;22.70;99.90
14993;DHT22;7592;51.088;13.732;2022-08-19T03:43:11;22.70;99.90
14993;DHT22;7592;51.088;13.732;2022-08-19T03:48:04;22.60;99.90
14993;DHT22;7592;51.088;13.732;2022-08-19T03:52:56;22.60;99.90
14993;DHT22;7592;51.088;13.732;2022-08-19T03:57:48;22.70;99.90
14993;DHT22;7592;51.088;13.732;2022-08-19T04:02:41;22.70;99.90
14993;DHT22;7592;51.088;13.732;2022-08-19T04:07:49;22.70;99.90
14993;DHT22;7592;51.088;13.732;2022-08-19T04:12:41;22.70;99.90
14993;DHT22;7592;51.088;13.732;2022-08-19T04:17:34;22.70;99.90
14993;DHT22;7592;51.088;13.732;2022-08-19T04:22:26;22.70;99.90
14993;DHT22;7592;51.088;13.732;2022-08-19T04:27:19;22.70;99.90
14993;DHT22;7592;51.088;13.732;2022-08-19T04:32:11;22.70;99.90
14993;DHT22;7592;51.088;13.732;2022-08-19T04:37:07;22.70;99.90
14993;DHT22;7592;51.088;13.732;2022-08-19T04:42:03;22.80;99.90
14993;DHT22;7592;51.088;13.732;2022-08-19T04:47:21;22.80;99.90
14993;DHT22;7592;51.088;13.732;2022-08-19T04:52:34;22.80;99.90
14993;DHT22;7592;51.088;13.732;2022-08-19T04:57:26;22.70;99.90
14993;DHT22;7592;51.088;13.732;2022-08-19T05:02:18;22.80;99.90
14993;DHT22;7592;51.088;13.732;2022-08-19T05:07:11;22.80;99.90
14993;DHT22;7592;51.088;13.732;2022-08-19T05:12:04;22.80;99.90
14993;DHT22;7592;51.088;13.732;2022-08-19T05:16:57;22.80;99.90
14993;DHT22;7592;51.088;13.732;2022-08-19T05:22:10;22.80;99.90
14993;DHT22;7592;51.088;13.732;2022-08-19T05:27:20;22.70;99.90
14993;DHT22;7592;51.088;13.732;2022-08-19T05:32:13;22.60;99.90
14993;DHT22;7592;51.088;13.732;2022-08-19T05:37:05;22.60;99.90
14993;DHT22;7592;51.088;13.732;2022-08-19T05:42:05;22.60;99.90
14993;DHT22;7592;51.088;13.732;2022-08-19T05:47:00;22.70;99.90
14993;DHT22;7592;51.088;13.732;2022-08-19T05:51:53;22.60;99.90
14993;DHT22;7592;51.088;13.732;2022-08-19T05:56:47;22.60;99.90
14993;DHT22;7592;51.088;13.732;2022-08-19T06:01:44;22.60;99.90
14993;DHT22;7592;51.088;13.732;2022-08-19T06:06:37;22.50;99.90
14993;DHT22;7592;51.088;13.732;2022-08-19T06:11:36;22.60;99.90
14993;DHT22;7592;51.088;13.732;2022-08-19T06:16:29;22.50;99.90
14993;DHT22;7592;51.088;13.732;2022-08-19T06:21:25;22.50;99.90
14993;DHT22;7592;51.088;13.732;2022-08-19T06:26:19;22.50;99.90
14993;DHT22;7592;51.088;13.732;2022-08-19T06:31:33;22.50;99.90
14993;DHT22;7592;51.088;13.732;2022-08-19T06:36:28;22.50;99.90
14993;DHT22;7592;51.088;13.732;2022-08-19T06:41:24;22.60;99.90
14993;DHT22;7592;51.088;13.732;2022-08-19T06:46:18;22.60;99.90
14993;DHT22;7592;51.088;13.732;2022-08-19T06:51:13;22.60;99.90
14993;DHT22;7592;51.088;13.732;2022-08-19T06:56:10;22.70;99.90
14993;DHT22;7592;51.088;13.732;2022-08-19T07:01:03;22.70;99.90
14993;DHT22;7592;51.088;13.732;2022-08-19T07:06:08;22.70;99.90
14993;DHT22;7592;51.088;13.732;2022-08-19T07:11:21;22.70;99.90
14993;DHT22;7592;51.088;13.732;2022-08-19T07:16:18;22.70;99.90
14993;DHT22;7592;51.088;13.732;2022-08-19T07:21:23;22.70;99.90
14993;DHT22;7592;51.088;13.732;2022-08-19T07:26:29;22.80;99.90
14993;DHT22;7592;51.088;13.732;2022-08-19T07:31:24;22.80;99.90
14993;DHT22;7592;51.088;13.732;2022-08-19T07:36:20;22.80;99.90
14993;DHT22;7592;51.088;13.732;2022-08-19T07:41:22;22.80;99.90
14993;DHT22;7592;51.088;13.732;2022-08-19T07:46:15;22.70;99.90
14993;DHT22;7592;51.088;13.732;2022-08-19T07:51:10;22.70;99.90
14993;DHT22;7592;51.088;13.732;2022-08-19T07:56:05;22.60;99.90
14993;DHT22;7592;51.088;13.732;2022-08-19T08:01:01;22.60;99.90
14993;DHT22;7592;51.088;13.732;2022-08-19T08:05:55;22.60;99.90
14993;DHT22;7592;51.088;13.732;2022-08-19T08:11:12;22.70;99.90
14993;DHT22;7592;51.088;13.732;2022-08-19T08:16:06;22.70;99.90
14993;DHT22;7592;51.088;13.732;2022-08-19T08:21:04;22.70;99.90
14993;DHT22;7592;51.088;13.732;2022-08-19T08:25:57;22.60;99.90
14993;DHT22;7592;51.088;13.732;2022-08-19T08:30:50;22.60;99.90
14993;DHT22;7592;51.088;13.732;2022-08-19T08:35:42;22.70;99.90
14993;DHT22;7592;51.088;13.732;2022-08-19T08:40:41;22.80;99.90
14993;DHT22;7592;51.088;13.732;2022-08-19T08:45:42;23.00;99.90
14993;DHT22;7592;51.088;13.732;2022-08-19T08:50:45;23.20;99.90
14993;DHT22;7592;51.088;13.732;2022-08-19T08:55:40;23.30;99.90
14993;DHT22;7592;51.088;13.732;2022-08-19T09:00:38;23.30;99.90
14993;DHT22;7592;51.088;13.732;2022-08-19T09:10:52;23.90;99.90
14993;DHT22;7592;51.088;13.732;2022-08-19T09:15:56;24.10;99.90
14993;DHT22;7592;51.088;13.732;2022-08-19T09:20:51;24.40;99.90
14993;DHT22;7592;51.088;13.732;2022-08-19T09:25:43;24.80;99.90
14993;DHT22;7592;51.088;13.732;2022-08-19T09:30:40;25.00;99.90
14993;DHT22;7592;51.088;13.732;2022-08-19T09:35:33;25.40;99.90
14993;DHT22;7592;51.088;13.732;2022-08-19T09:40:43;25.60;99.90
14993;DHT22;7592;51.088;13.732;2022-08-19T09:45:36;25.80;99.90
14993;DHT22;7592;51.088;13.732;2022-08-19T09:50:29;25.80;99.90
14993;DHT22;7592;51.088;13.732;2022-08-19T09:55:25;25.90;99.90
14993;DHT22;7592;51.088;13.732;2022-08-19T10:00:23;26.10;99.90
14993;DHT22;7592;51.088;13.732;2022-08-19T10:05:15;26.30;99.90
14993;DHT22;7592;51.088;13.732;2022-08-19T10:10:27;26.40;99.90
14993;DHT22;7592;51.088;13.732;2022-08-19T10:15:20;26.00;99.90
14993;DHT22;7592;51.088;13.732;2022-08-19T10:20:20;25.80;99.90
14993;DHT22;7592;51.088;13.732;2022-08-19T10:25:14;26.30;99.90
14993;DHT22;7592;51.088;13.732;2022-08-19T10:30:09;26.60;99.90
14993;DHT22;7592;51.088;13.732;2022-08-19T10:35:05;26.40;99.90
14993;DHT22;7592;51.088;13.732;2022-08-19T10:40:00;26.20;99.90
14993;DHT22;7592;51.088;13.732;2022-08-19T10:44:54;26.10;99.90
14993;DHT22;7592;51.088;13.732;2022-08-19T10:49:48;26.30;99.90
14993;DHT22;7592;51.088;13.732;2022-08-19T10:55:04;27.60;99.90
14993;DHT22;7592;51.088;13.732;2022-08-19T11:00:21;30.00;99.90
14993;DHT22;7592;51.088;13.732;2022-08-19T11:05:15;31.00;99.90
14993;DHT22;7592;51.088;13.732;2022-08-19T11:10:10;30.30;99.90
14993;DHT22;7592;51.088;13.732;2022-08-19T11:15:05;29.50;99.90
14993;DHT22;7592;51.088;13.732;2022-08-19T11:19:57;28.60;99.90
14993;DHT22;7592;51.088;13.732;2022-08-19T11:24:49;27.70;99.90
14993;DHT22;7592;51.088;13.732;2022-08-19T11:29:42;27.20;99.90
14993;DHT22;7592;51.088;13.732;2022-08-19T11:34:34;27.40;99.90
14993;DHT22;7592;51.088;13.732;2022-08-19T11:39:29;27.40;99.90
14993;DHT22;7592;51.088;13.732;2022-08-19T11:44:22;27.90;99.90
14993;DHT22;7592;51.088;13.732;2022-08-19T11:49:19;27.90;99.90
14993;DHT22;7592;51.088;13.732;2022-08-19T11:54:13;27.80;99.90
14993;DHT22;7592;51.088;13.732;2022-08-19T11:59:07;28.20;99.90
14993;DHT22;7592;51.088;13.732;2022-08-19T12:04:05;28.00;99.90
14993;DHT22;7592;51.088;13.732;2022-08-19T12:09:00;27.10;99.90
14993;DHT22;7592;51.088;13.732;2022-08-19T12:13:53;26.40;99.90
14993;DHT22;7592;51.088;13.732;2022-08-19T12:18:46;25.90;99.90
14993;DHT22;7592;51.088;13.732;2022-08-19T12:23:40;25.70;99.90
14993;DHT22;7592;51.088;13.732;2022-08-19T12:28:32;25.90;99.90
14993;DHT22;7592;51.088;13.732;2022-08-19T14:36:07;24.20;99.90
14993;DHT22;7592;51.088;13.732;2022-08-19T14:41:10;24.30;99.90
14993;DHT22;7592;51.088;13.732;2022-08-19T14:46:04;24.30;99.90
14993;DHT22;7592;51.088;13.732;2022-08-19T14:50:57;24.20;99.90
14993;DHT22;7592;51.088;13.732;2022-08-19T14:55:49;24.10;99.90
14993;DHT22;7592;51.088;13.732;2022-08-19T15:00:41;24.10;99.90
14993;DHT22;7592;51.088;13.732;2022-08-19T15:05:34;24.10;99.90
14993;DHT22;7592;51.088;13.732;2022-08-19T15:10:27;24.00;99.90
14993;DHT22;7592;51.088;13.732;2022-08-19T15:15:20;24.00;99.90
14993;DHT22;7592;51.088;13.732;2022-08-19T15:20:18;23.90;99.90
14993;DHT22;7592;51.088;13.732;2022-08-19T15:25:14;24.00;99.90
14993;DHT22;7592;51.088;13.732;2022-08-19T15:30:09;24.10;99.90
14993;DHT22;7592;51.088;13.732;2022-08-19T15:35:03;24.10;99.90
14993;DHT22;7592;51.088;13.732;2022-08-19T15:39:56;24.10;99.90
14993;DHT22;7592;51.088;13.732;2022-08-19T15:44:50;24.10;99.90
14993;DHT22;7592;51.088;13.732;2022-08-19T15:49:45;23.90;99.90
14993;DHT22;7592;51.088;13.732;2022-08-19T15:54:38;23.90;99.90
14993;DHT22;7592;51.088;13.732;2022-08-19T15:59:33;23.90;99.90
14993;DHT22;7592;51.088;13.732;2022-08-19T16:04:44;24.00;99.90
14993;DHT22;7592;51.088;13.732;2022-08-19T16:09:55;24.20;99.90
14993;DHT22;7592;51.088;13.732;2022-08-19T16:14:47;24.20;99.90
14993;DHT22;7592;51.088;13.732;2022-08-19T16:19:40;24.20;99.90
14993;DHT22;7592;51.088;13.732;2022-08-19T16:24:32;24.20;99.90
14993;DHT22;7592;51.088;13.732;2022-08-19T16:29:25;24.10;99.90
14993;DHT22;7592;51.088;13.732;2022-08-19T16:34:30;23.90;99.90
14993;DHT22;7592;51.088;13.732;2022-08-19T16:39:24;23.80;99.90
14993;DHT22;7592;51.088;13.732;2022-08-19T16:44:17;23.80;99.90
14993;DHT22;7592;51.088;13.732;2022-08-19T16:49:12;23.80;99.90
14993;DHT22;7592;51.088;13.732;2022-08-19T16:54:06;23.80;99.90
14993;DHT22;7592;51.088;13.732;2022-08-19T16:58:58;23.70;99.90
14993;DHT22;7592;51.088;13.732;2022-08-19T17:03:54;23.70;99.90
14993;DHT22;7592;51.088;13.732;2022-08-19T17:08:49;23.70;99.90
14993;DHT22;7592;51.088;13.732;2022-08-19T17:13:42;23.70;99.90
14993;DHT22;7592;51.088;13.732;2022-08-19T17:18:38;23.60;99.90
14993;DHT22;7592;51.088;13.732;2022-08-19T17:23:31;23.60;99.90
14993;DHT22;7592;51.088;13.732;2022-08-19T17:28:35;23.50;99.90
14993;DHT22;7592;51.088;13.732;2022-08-19T17:33:28;23.40;99.90
14993;DHT22;7592;51.088;13.732;2022-08-19T17:38:21;23.30;99.90
14993;DHT22;7592;51.088;13.732;2022-08-19T17:43:17;23.20;99.90
14993;DHT22;7592;51.088;13.732;2022-08-19T17:48:23;23.20;99.90
14993;DHT22;7592;51.088;13.732;2022-08-19T17:53:18;23.10;99.90
14993;DHT22;7592;51.088;13.732;2022-08-19T17:58:11;23.20;99.90
14993;DHT22;7592;51.088;13.732;2022-08-19T18:03:05;23.10;99.90
14993;DHT22;7592;51.088;13.732;2022-08-19T18:07:58;23.10;99.90
14993;DHT22;7592;51.088;13.732;2022-08-19T18:12:52;23.10;99.90
14993;DHT22;7592;51.088;13.732;2022-08-19T18:17:44;23.00;99.90
14993;DHT22;7592;51.088;13.732;2022-08-19T18:22:40;22.90;99.90
14993;DHT22;7592;51.088;13.732;2022-08-19T18:27:33;22.90;99.90
14993;DHT22;7592;51.088;13.732;2022-08-19T18:32:28;22.90;99.90
14993;DHT22;7592;51.088;13.732;2022-08-19T18:37:24;22.80;99.90
14993;DHT22;7592;51.088;13.732;2022-08-19T18:42:18;22.80;99.90
14993;DHT22;7592;51.088;13.732;2022-08-19T18:47:29;22.80;99.90
14993;DHT22;7592;51.088;13.732;2022-08-19T18:52:39;22.80;99.90
14993;DHT22;7592;51.088;13.732;2022-08-19T18:57:33;22.80;99.90
14993;DHT22;7592;51.088;13.732;2022-08-19T19:02:25;22.70;99.90
14993;DHT22;7592;51.088;13.732;2022-08-19T19:07:19;22.70;99.90
14993;DHT22;7592;51.088;13.732;2022-08-19T19:12:11;22.70;99.90
14993;DHT22;7592;51.088;13.732;2022-08-19T19:17:08;22.60;99.90
14993;DHT22;7592;51.088;13.732;2022-08-19T19:22:03;22.60;99.90
14993;DHT22;7592;51.088;13.732;2022-08-19T19:26:59;22.60;99.90
14993;DHT22;7592;51.088;13.732;2022-08-19T19:31:52;22.50;99.90
14993;DHT22;7592;51.088;13.732;2022-08-19T19:36:49;22.50;99.90
14993;DHT22;7592;51.088;13.732;2022-08-19T19:41:43;22.50;99.90
14993;DHT22;7592;51.088;13.732;2022-08-19T19:46:36;22.50;99.90
14993;DHT22;7592;51.088;13.732;2022-08-19T19:51:28;22.40;99.90
14993;DHT22;7592;51.088;13.732;2022-08-19T19:56:28;22.40;99.90
14993;DHT22;7592;51.088;13.732;2022-08-19T20:01:22;22.40;99.90
14993;DHT22;7592;51.088;13.732;2022-08-19T20:06:18;22.30;99.90
14993;DHT22;7592;51.088;13.732;2022-08-19T20:11:12;22.30;99.90
14993;DHT22;7592;51.088;13.732;2022-08-19T20:16:09;22.40;99.90
14993;DHT22;7592;51.088;13.732;2022-08-19T20:21:02;22.40;99.90
14993;DHT22;7592;51.088;13.732;2022-08-19T20:25:54;22.40;99.90
14993;DHT22;7592;51.088;13.732;2022-08-19T20:30:48;22.40;99.90
14993;DHT22;7592;51.088;13.732;2022-08-19T20:35:42;22.40;99.90
14993;DHT22;7592;51.088;13.732;2022-08-19T20:40:35;22.30;99.90
14993;DHT22;7592;51.088;13.732;2022-08-19T20:45:28;22.30;99.90
14993;DHT22;7592;51.088;13.732;2022-08-19T20:50:24;22.30;99.90
14993;DHT22;7592;51.088;13.732;2022-08-19T20:55:21;22.20;99.90
14993;DHT22;7592;51.088;13.732;2022-08-19T21:00:14;22.20;99.90
14993;DHT22;7592;51.088;13.732;2022-08-19T21:05:08;22.20;99.90
14993;DHT22;7592;51.088;13.732;2022-08-19T21:10:01;22.20;99.90
14993;DHT22;7592;51.088;13.732;2022-08-19T21:14:55;22.20;99.90
14993;DHT22;7592;51.088;13.732;2022-08-19T21:19:47;22.20;99.90
14993;DHT22;7592;51.088;13.732;2022-08-19T21:24:40;22.10;99.90
14993;DHT22;7592;51.088;13.732;2022-08-19T21:29:34;21.90;99.90
14993;DHT22;7592;51.088;13.732;2022-08-19T21:34:29;22.00;99.90
14993;DHT22;7592;51.088;13.732;2022-08-19T21:39:21;22.00;99.90
14993;DHT22;7592;51.088;13.732;2022-08-19T21:44:13;22.10;99.90
14993;DHT22;7592;51.088;13.732;2022-08-19T21:49:06;22.10;99.90
14993;DHT22;7592;51.088;13.732;2022-08-19T21:53:58;22.10;99.90
14993;DHT22;7592;51.088;13.732;2022-08-19T21:58:51;22.10;99.90
14993;DHT22;7592;51.088;13.732;2022-08-19T22:03:43;22.10;99.90
14993;DHT22;7592;51.088;13.732;2022-08-19T22:08:36;22.10;99.90
14993;DHT22;7592;51.088;13.732;2022-08-19T22:13:30;22.10;99.90
14993;DHT22;7592;51.088;13.732;2022-08-19T22:18:31;22.10;99.90
14993;DHT22;7592;51.088;13.732;2022-08-19T22:23:26;22.00;99.90
14993;DHT22;7592;51.088;13.732;2022-08-19T22:28:18;22.00;99.90
14993;DHT22;7592;51.088;13.732;2022-08-19T22:33:19;22.00;99.90
14993;DHT22;7592;51.088;13.732;2022-08-19T22:38:14;22.00;99.90
14993;DHT22;7592;51.088;13.732;2022-08-19T22:43:22;22.00;99.90
14993;DHT22;7592;51.088;13.732;2022-08-19T22:48:17;21.90;99.90
14993;DHT22;7592;51.088;13.732;2022-08-19T22:53:10;21.90;99.90
14993;DHT22;7592;51.088;13.732;2022-08-19T22:58:03;21.90;99.90
14993;DHT22;7592;51.088;13.732;2022-08-19T23:02:57;22.00;99.90
14993;DHT22;7592;51.088;13.732;2022-08-19T23:07:50;22.00;99.90
14993;DHT22;7592;51.088;13.732;2022-08-19T23:12:46;21.90;99.90
14993;DHT22;7592;51.088;13.732;2022-08-19T23:17:39;21.90;99.90
14993;DHT22;7592;51.088;13.732;2022-08-19T23:22:32;21.90;99.90
14993;DHT22;7592;51.088;13.732;2022-08-19T23:27:24;21.80;99.90
14993;DHT22;7592;51.088;13.732;2022-08-19T23:32:35;21.90;99.90
14993;DHT22;7592;51.088;13.732;2022-08-19T23:37:28;22.00;99.90
14993;DHT22;7592;51.088;13.732;2022-08-19T23:42:21;21.90;99.90
14993;DHT22;7592;51.088;13.732;2022-08-19T23:47:17;21.80;99.90
14993;DHT22;7592;51.088;13.732;2022-08-19T23:52:09;21.80;99.90
14993;DHT22;7592;51.088;13.732;2022-08-19T23:57:01;21.80;99.90
